createdAt,value
2022-11-27T00:00:00.491Z,4.4
2022-11-27T00:05:00.397Z,4.4
2022-11-27T00:10:00.382Z,4.5
2022-11-27T00:15:00.444Z,4.5
2022-11-27T00:20:00.406Z,4.5
2022-11-27T00:25:00.325Z,4.5
2022-11-27T00:30:00.443Z,4.6
2022-11-27T00:35:00.433Z,4.5
2022-11-27T00:40:00.389Z,4.5
2022-11-27T00:45:00.421Z,4.5
2022-11-27T00:50:00.360Z,4.4
2022-11-27T00:55:00.340Z,4.4
2022-11-27T01:00:00.491Z,4.4
2022-11-27T01:05:00.367Z,4.3
2022-11-27T01:10:00.451Z,4.3
2022-11-27T01:15:00.429Z,4.3
2022-11-27T01:20:00.420Z,4.2
2022-11-27T01:25:00.483Z,4.2
2022-11-27T01:30:00.441Z,4.2
2022-11-27T01:35:00.355Z,4.2
2022-11-27T01:40:00.432Z,4.2
2022-11-27T01:45:00.390Z,4.3
2022-11-27T01:50:00.451Z,4.4
2022-11-27T01:55:00.358Z,4.4
2022-11-27T02:00:00.412Z,4.4
2022-11-27T02:05:00.405Z,4.4
2022-11-27T02:10:00.365Z,4.4
2022-11-27T02:15:00.435Z,4.4
2022-11-27T02:20:00.406Z,4.4
2022-11-27T02:25:00.487Z,4.4
2022-11-27T02:30:00.481Z,4.4
2022-11-27T02:35:00.404Z,4.4
2022-11-27T02:40:00.347Z,4.4
2022-11-27T02:45:00.354Z,4.4
2022-11-27T02:50:00.417Z,4.4
2022-11-27T02:55:00.355Z,4.4
2022-11-27T03:00:00.368Z,4.4
2022-11-27T03:05:00.429Z,4.4
2022-11-27T03:10:00.421Z,4.5
2022-11-27T03:15:00.477Z,4.5
2022-11-27T03:20:00.468Z,4.5
2022-11-27T03:25:00.421Z,4.5
2022-11-27T03:30:00.402Z,4.6
2022-11-27T03:35:00.408Z,4.6
2022-11-27T03:40:00.408Z,4.6
2022-11-27T03:45:00.409Z,4.6
2022-11-27T03:50:00.429Z,4.5
2022-11-27T03:55:00.428Z,4.5
2022-11-27T04:00:00.447Z,4.5
2022-11-27T04:05:00.419Z,4.5
2022-11-27T04:10:00.408Z,4.5
2022-11-27T04:15:00.526Z,4.5
2022-11-27T04:20:00.381Z,4.4
2022-11-27T04:25:00.323Z,4.4
2022-11-27T04:30:00.431Z,4.4
2022-11-27T04:35:00.361Z,4.4
2022-11-27T04:40:00.416Z,4.4
2022-11-27T04:45:00.446Z,4.4
2022-11-27T04:50:00.449Z,4.4
2022-11-27T04:55:00.703Z,4.5
2022-11-27T05:00:00.437Z,4.5
2022-11-27T05:05:00.415Z,4.5
2022-11-27T05:10:00.440Z,4.5
2022-11-27T05:15:04.146Z,4.5
2022-11-27T05:20:00.421Z,4.5
2022-11-27T05:25:00.444Z,4.5
2022-11-27T05:30:00.502Z,4.5
2022-11-27T05:35:00.387Z,4.5
2022-11-27T05:40:00.432Z,4.5
2022-11-27T05:45:00.465Z,4.5
2022-11-27T05:50:00.380Z,4.5
2022-11-27T05:55:00.402Z,4.5
2022-11-27T06:00:00.365Z,4.5
2022-11-27T06:05:00.439Z,4.5
2022-11-27T06:10:00.407Z,4.5
2022-11-27T06:15:00.396Z,4.5
2022-11-27T06:20:00.430Z,4.5
2022-11-27T06:25:00.394Z,4.5
2022-11-27T06:30:00.430Z,4.5
2022-11-27T06:35:00.427Z,4.4
2022-11-27T06:40:00.363Z,4.4
2022-11-27T06:45:00.341Z,4.4
2022-11-27T06:50:00.393Z,4.4
2022-11-27T06:55:00.386Z,4.4
2022-11-27T07:00:00.450Z,4.5
2022-11-27T07:05:00.435Z,4.5
2022-11-27T07:10:00.392Z,4.5
2022-11-27T07:15:03.966Z,4.5
2022-11-27T07:20:00.353Z,4.5
2022-11-27T07:25:00.346Z,4.5
2022-11-27T07:30:00.428Z,4.5
2022-11-27T07:35:00.406Z,4.5
2022-11-27T07:40:03.176Z,4.6
2022-11-27T07:45:00.343Z,4.6
2022-11-27T07:50:00.404Z,4.6
2022-11-27T07:55:00.410Z,4.6
2022-11-27T08:00:00.522Z,4.7
2022-11-27T08:05:00.586Z,4.7
2022-11-27T08:10:00.373Z,4.7
2022-11-27T08:15:00.400Z,4.8
2022-11-27T08:20:00.413Z,4.8
2022-11-27T08:25:00.352Z,4.8
2022-11-27T08:30:00.409Z,4.8
2022-11-27T08:35:00.355Z,4.8
2022-11-27T08:40:00.430Z,4.8
2022-11-27T08:45:00.428Z,4.9
2022-11-27T08:50:00.394Z,4.9
2022-11-27T08:55:00.429Z,5
2022-11-27T09:00:00.515Z,5
2022-11-27T09:05:00.420Z,5
2022-11-27T09:10:00.448Z,5.1
2022-11-27T09:15:00.445Z,5.2
2022-11-27T09:20:00.392Z,5.2
2022-11-27T09:25:00.337Z,5.3
2022-11-27T09:30:00.430Z,5.4
2022-11-27T09:35:00.551Z,5.3
2022-11-27T09:40:00.319Z,5.4
2022-11-27T09:45:00.426Z,5.5
2022-11-27T09:50:00.395Z,5.5
2022-11-27T10:00:00.431Z,5.6
2022-11-27T10:05:14.549Z,5.7
2022-11-27T10:10:00.433Z,5.7
2022-11-27T10:15:00.400Z,5.9
2022-11-27T10:20:00.420Z,5.9
2022-11-27T10:25:00.308Z,5.9
2022-11-27T10:30:00.460Z,5.9
2022-11-27T10:35:00.362Z,6
2022-11-27T10:40:00.405Z,6
2022-11-27T10:45:00.437Z,6.1
2022-11-27T10:50:00.374Z,6
2022-11-27T10:55:00.319Z,6
2022-11-27T11:00:00.336Z,6
2022-11-27T11:05:24.412Z,5.9
2022-11-27T11:10:00.366Z,5.8
2022-11-27T11:15:00.437Z,5.7
2022-11-27T11:20:00.384Z,5.7
2022-11-27T11:25:00.458Z,5.8
2022-11-27T11:30:00.418Z,5.7
2022-11-27T11:35:01.068Z,5.6
2022-11-27T11:40:00.334Z,5.6
2022-11-27T11:45:00.403Z,5.8
2022-11-27T11:50:00.404Z,5.7
2022-11-27T11:55:00.381Z,5.8
2022-11-27T12:00:00.491Z,5.7
2022-11-27T12:05:00.469Z,5.8
2022-11-27T12:10:00.432Z,5.7
2022-11-27T12:15:00.351Z,5.9
2022-11-27T12:20:00.383Z,5.7
2022-11-27T12:25:00.445Z,5.9
2022-11-27T12:35:00.449Z,6
2022-11-27T12:40:00.411Z,6.1
2022-11-27T12:45:00.461Z,6
2022-11-27T12:50:00.418Z,6.1
2022-11-27T12:55:00.476Z,6.2
2022-11-27T13:00:00.451Z,6.1
2022-11-27T13:05:00.414Z,5.9
2022-11-27T13:10:00.365Z,5.9
2022-11-27T13:15:00.416Z,5.7
2022-11-27T13:20:00.384Z,5.8
2022-11-27T13:25:00.444Z,5.9
2022-11-27T13:30:00.508Z,5.8
2022-11-27T13:35:00.371Z,5.8
2022-11-27T13:40:00.482Z,5.9
2022-11-27T13:45:00.393Z,5.9
2022-11-27T13:50:00.444Z,5.8
2022-11-27T13:55:00.395Z,5.8
2022-11-27T14:00:00.335Z,5.8
2022-11-27T14:05:00.356Z,5.7
2022-11-27T14:10:00.385Z,5.8
2022-11-27T14:15:00.425Z,5.9
2022-11-27T14:20:00.379Z,5.8
2022-11-27T14:25:00.343Z,5.8
2022-11-27T14:30:00.511Z,5.9
2022-11-27T14:35:00.383Z,5.9
2022-11-27T14:40:00.473Z,5.9
2022-11-27T14:45:00.367Z,5.9
2022-11-27T14:50:00.493Z,5.8
2022-11-27T14:55:00.354Z,5.8
2022-11-27T15:00:00.314Z,5.8
2022-11-27T15:05:00.407Z,5.7
2022-11-27T15:10:00.336Z,5.8
2022-11-27T15:15:00.461Z,5.7
2022-11-27T15:20:00.416Z,5.7
2022-11-27T15:25:00.327Z,5.7
2022-11-27T15:30:00.526Z,5.7
2022-11-27T15:35:00.397Z,5.6
2022-11-27T15:40:00.371Z,5.6
2022-11-27T15:45:00.341Z,5.5
2022-11-27T15:50:00.358Z,5.5
2022-11-27T15:55:00.359Z,5.5
2022-11-27T16:00:00.447Z,5.5
2022-11-27T16:05:00.409Z,5.4
2022-11-27T16:10:00.436Z,5.4
2022-11-27T16:15:00.381Z,5.4
2022-11-27T16:20:00.408Z,5.4
2022-11-27T16:25:00.316Z,5.4
2022-11-27T16:30:00.385Z,5.4
2022-11-27T16:35:00.404Z,5.4
2022-11-27T16:40:00.381Z,5.4
2022-11-27T16:45:00.403Z,5.5
2022-11-27T16:50:00.442Z,5.5
2022-11-27T16:55:00.363Z,5.4
2022-11-27T17:00:00.557Z,5.4
2022-11-27T17:05:00.399Z,5.4
2022-11-27T17:10:00.390Z,5.3
2022-11-27T17:15:00.481Z,5.4
2022-11-27T17:20:00.660Z,5.4
2022-11-27T17:25:00.365Z,5.4
2022-11-27T17:30:00.379Z,5.4
2022-11-27T17:35:00.348Z,5.5
2022-11-27T17:40:00.322Z,5.5
2022-11-27T17:45:00.395Z,5.4
2022-11-27T17:50:00.409Z,5.4
2022-11-27T17:55:00.393Z,5.4
2022-11-27T18:00:00.435Z,5.4
2022-11-27T18:05:00.327Z,5.5
2022-11-27T18:10:00.387Z,5.5
2022-11-27T18:15:01.357Z,5.5
2022-11-27T18:20:00.393Z,5.5
2022-11-27T18:25:00.426Z,5.5
2022-11-27T18:30:00.368Z,5.5
2022-11-27T18:35:00.337Z,5.6
2022-11-27T18:40:00.413Z,5.6
2022-11-27T18:45:00.469Z,5.5
2022-11-27T18:50:00.442Z,5.5
2022-11-27T18:55:00.395Z,5.5
2022-11-27T19:00:00.410Z,5.5
2022-11-27T19:05:00.378Z,5.5
2022-11-27T19:10:00.436Z,5.5
2022-11-27T19:15:00.371Z,5.5
2022-11-27T19:20:00.482Z,5.5
2022-11-27T19:25:00.403Z,5.5
2022-11-27T19:30:00.366Z,5.5
2022-11-27T19:35:04.346Z,5.5
2022-11-27T19:40:00.416Z,5.4
2022-11-27T19:45:00.393Z,5.4
2022-11-27T19:50:00.362Z,5.4
2022-11-27T19:55:00.415Z,5.4
2022-11-27T20:00:00.341Z,5.4
2022-11-27T20:05:00.353Z,5.3
2022-11-27T20:10:00.375Z,5.3
2022-11-27T20:15:00.354Z,5.3
2022-11-27T20:20:00.357Z,5.4
2022-11-27T20:25:18.225Z,5.4
2022-11-27T20:30:00.395Z,5.3
2022-11-27T20:35:00.392Z,5.3
2022-11-27T20:40:00.351Z,5.3
2022-11-27T20:45:00.382Z,5.3
2022-11-27T20:50:00.475Z,5.2
2022-11-27T20:55:00.440Z,5.2
2022-11-27T21:00:00.401Z,5.2
2022-11-27T21:05:00.415Z,5.2
2022-11-27T21:10:00.450Z,5.2
2022-11-27T21:15:00.377Z,5.2
2022-11-27T21:20:00.369Z,5.2
2022-11-27T21:25:00.410Z,5.2
2022-11-27T21:30:00.365Z,5.3
2022-11-27T21:35:00.372Z,5.4
2022-11-27T21:40:00.439Z,5.4
2022-11-27T21:45:00.368Z,5.3
2022-11-27T21:50:00.375Z,5.3
2022-11-27T21:55:00.372Z,5.3
2022-11-27T22:00:00.345Z,5.4
2022-11-27T22:05:00.437Z,5.5
2022-11-27T22:10:00.401Z,5.5
2022-11-27T22:15:00.350Z,5.4
2022-11-27T22:20:00.387Z,5.4
2022-11-27T22:25:00.410Z,5.4
2022-11-27T22:30:00.432Z,5.4
2022-11-27T22:35:00.510Z,5.4
2022-11-27T22:40:00.437Z,5.4
2022-11-27T22:45:00.347Z,5.4
2022-11-27T22:50:00.346Z,5.4
2022-11-27T22:55:00.402Z,5.4
2022-11-27T23:00:00.377Z,5.4
2022-11-27T23:05:00.392Z,5.4
2022-11-27T23:10:00.468Z,5.5
2022-11-27T23:15:00.503Z,5.5
2022-11-27T23:20:00.387Z,5.5
2022-11-27T23:25:00.367Z,5.5
2022-11-27T23:30:00.361Z,5.5
2022-11-27T23:35:00.363Z,5.5
2022-11-27T23:40:00.363Z,5.4
2022-11-27T23:45:00.383Z,5.4
2022-11-27T23:50:00.366Z,5.6
2022-11-27T23:55:00.433Z,5.6
